createdAt,value
2018-12-08T00:00:06.381Z,97.74
2018-12-08T00:00:32.479Z,97.55
2018-12-08T00:00:58.592Z,97.64
2018-12-08T00:01:24.700Z,97.64
2018-12-08T00:01:50.840Z,97.93
2018-12-08T00:02:16.958Z,98.03
2018-12-08T00:02:43.064Z,98.03
2018-12-08T00:03:09.169Z,97.83
2018-12-08T00:03:35.280Z,98.03
2018-12-08T00:04:01.387Z,97.74
2018-12-08T00:04:27.482Z,97.55
2018-12-08T00:04:53.617Z,97.55
2018-12-08T00:05:19.720Z,97.74
2018-12-08T00:05:45.819Z,98.12
2018-12-08T00:06:11.926Z,97.83
2018-12-08T00:06:38.029Z,97.64
2018-12-08T00:07:04.185Z,98.03
2018-12-08T00:07:30.294Z,97.74
2018-12-08T00:07:56.400Z,97.74
2018-12-08T00:08:22.501Z,97.64
2018-12-08T00:08:48.610Z,97.36
2018-12-08T00:09:14.713Z,98.22
2018-12-08T00:09:40.826Z,97.83
2018-12-08T00:10:06.930Z,97.74
2018-12-08T00:10:33.037Z,98.12
2018-12-08T00:10:59.198Z,98.03
2018-12-08T00:11:25.304Z,97.17
2018-12-08T00:11:52.395Z,97.36
2018-12-08T00:12:18.509Z,97.74
2018-12-08T00:12:44.616Z,98.03
2018-12-08T00:13:10.717Z,97.74
2018-12-08T00:13:36.823Z,98.03
2018-12-08T00:14:02.933Z,97.74
2018-12-08T00:14:29.046Z,97.74
2018-12-08T00:14:55.146Z,97.74
2018-12-08T00:15:21.250Z,97.64
2018-12-08T00:15:47.402Z,97.74
2018-12-08T00:16:13.506Z,97.74
2018-12-08T00:16:39.610Z,97.55
2018-12-08T00:17:05.715Z,97.45
2018-12-08T00:17:31.815Z,97.74
2018-12-08T00:17:57.954Z,97.45
2018-12-08T00:18:24.053Z,97.17
2018-12-08T00:18:50.156Z,97.17
2018-12-08T00:19:16.261Z,97.08
2018-12-08T00:19:42.363Z,97.08
2018-12-08T00:20:08.474Z,96.69
2018-12-08T00:20:34.631Z,96.79
2018-12-08T00:21:00.764Z,96.6
2018-12-08T00:21:26.875Z,96.41
2018-12-08T00:21:53.005Z,96.03
2018-12-08T00:22:19.107Z,96.41
2018-12-08T00:22:45.240Z,96.98
2018-12-08T00:23:11.352Z,96.89
2018-12-08T00:23:37.459Z,96.79
2018-12-08T00:24:03.555Z,96.79
2018-12-08T00:24:29.666Z,96.79
2018-12-08T00:24:55.816Z,96.79
2018-12-08T00:25:21.916Z,96.6
2018-12-08T00:25:48.032Z,96.79
2018-12-08T00:26:14.129Z,96.6
2018-12-08T00:26:40.241Z,97.08
2018-12-08T00:27:06.372Z,97.55
2018-12-08T00:27:32.481Z,98.22
2018-12-08T00:27:58.584Z,99.36
2018-12-08T00:28:24.707Z,99.84
2018-12-08T00:28:50.809Z,99.99
2018-12-08T00:29:16.913Z,99.99
2018-12-08T00:29:43.017Z,99.99
2018-12-08T00:30:09.156Z,99.99
2018-12-08T00:30:35.261Z,99.99
2018-12-08T00:31:01.365Z,99.99
2018-12-08T00:31:27.492Z,99.99
2018-12-08T00:31:53.626Z,99.99
2018-12-08T00:32:19.731Z,99.99
2018-12-08T00:32:45.863Z,99.99
2018-12-08T00:33:11.971Z,99.99
2018-12-08T00:33:38.105Z,99.99
2018-12-08T00:34:04.207Z,99.99
2018-12-08T00:34:30.307Z,99.99
2018-12-08T00:34:56.475Z,99.99
2018-12-08T00:35:22.580Z,99.99
2018-12-08T00:35:48.685Z,99.99
2018-12-08T00:36:14.798Z,99.99
2018-12-08T00:36:40.902Z,99.99
2018-12-08T00:37:07.011Z,99.99
2018-12-08T00:37:33.115Z,99.99
2018-12-08T00:37:59.222Z,99.99
2018-12-08T00:38:25.328Z,99.99
2018-12-08T00:38:51.437Z,99.99
2018-12-08T00:39:17.519Z,99.99
2018-12-08T00:39:43.631Z,99.99
2018-12-08T00:40:09.729Z,99.99
2018-12-08T00:40:35.835Z,99.99
2018-12-08T00:41:01.948Z,99.99
2018-12-08T00:41:28.081Z,99.99
2018-12-08T00:41:54.182Z,99.99
2018-12-08T00:42:20.275Z,99.99
2018-12-08T00:42:46.417Z,99.99
2018-12-08T00:43:12.524Z,99.45
2018-12-08T00:43:38.628Z,99.45
2018-12-08T00:44:04.727Z,99.07
2018-12-08T00:44:30.835Z,98.97
2018-12-08T00:44:56.968Z,98.79
2018-12-08T00:45:23.073Z,99.55
2018-12-08T00:45:49.173Z,99.07
2018-12-08T00:46:15.283Z,98.97
2018-12-08T00:46:41.392Z,98.88
2018-12-08T00:47:07.499Z,99.16
2018-12-08T00:47:33.604Z,99.26
2018-12-08T00:47:59.711Z,99.55
2018-12-08T00:48:25.846Z,99.74
2018-12-08T00:48:51.948Z,99.74
2018-12-08T00:49:18.049Z,98.88
2018-12-08T00:49:44.151Z,99.26
2018-12-08T00:50:10.279Z,99.26
2018-12-08T00:50:36.411Z,98.79
2018-12-08T00:51:02.511Z,99.26
2018-12-08T00:51:28.620Z,99.26
2018-12-08T00:51:54.723Z,98.79
2018-12-08T00:52:20.830Z,98.69
2018-12-08T00:52:46.960Z,98.69
2018-12-08T00:53:13.067Z,98.88
2018-12-08T00:53:39.179Z,98.97
2018-12-08T00:54:05.280Z,98.6
2018-12-08T00:54:31.418Z,98.79
2018-12-08T00:54:57.530Z,98.22
2018-12-08T00:55:23.635Z,97.74
2018-12-08T00:55:49.744Z,97.93
2018-12-08T00:56:15.847Z,97.27
2018-12-08T00:56:41.954Z,97.27
2018-12-08T00:57:08.065Z,96.98
2018-12-08T00:57:34.167Z,96.5
2018-12-08T00:58:00.275Z,96.79
2018-12-08T00:58:26.403Z,96.79
2018-12-08T00:58:52.511Z,97.27
2018-12-08T00:59:18.607Z,96.69
2018-12-08T00:59:44.713Z,96.98
2018-12-08T01:00:10.842Z,96.79
2018-12-08T01:00:36.954Z,96.6
2018-12-08T01:01:03.056Z,96.79
2018-12-08T01:01:29.161Z,96.31
2018-12-08T01:01:55.265Z,96.03
2018-12-08T01:02:21.376Z,96.89
2018-12-08T01:02:47.526Z,96.6
2018-12-08T01:03:13.621Z,96.69
2018-12-08T01:03:39.733Z,96.89
2018-12-08T01:04:05.834Z,96.41
2018-12-08T01:04:31.996Z,96.31
2018-12-08T01:04:58.130Z,96.79
2018-12-08T01:05:24.235Z,96.69
2018-12-08T01:05:50.377Z,97.17
2018-12-08T01:06:16.505Z,96.69
2018-12-08T01:06:42.614Z,96.5
2018-12-08T01:07:08.717Z,96.5
2018-12-08T01:07:34.847Z,96.22
2018-12-08T01:08:00.986Z,96.69
2018-12-08T01:08:27.089Z,96.98
2018-12-08T01:08:53.226Z,96.5
2018-12-08T01:09:19.328Z,96.12
2018-12-08T01:09:45.435Z,95.75
2018-12-08T01:10:11.542Z,95.84
2018-12-08T01:10:37.648Z,96.22
2018-12-08T01:11:03.757Z,95.94
2018-12-08T01:11:29.863Z,96.03
2018-12-08T01:11:55.963Z,96.03
2018-12-08T01:12:22.068Z,95.94
2018-12-08T01:12:48.221Z,96.03
2018-12-08T01:13:14.331Z,96.22
2018-12-08T01:13:40.435Z,96.41
2018-12-08T01:14:06.544Z,96.22
2018-12-08T01:14:32.692Z,96.41
2018-12-08T01:14:58.800Z,96.5
2018-12-08T01:15:24.909Z,96.79
2018-12-08T01:15:51.011Z,96.5
2018-12-08T01:16:17.154Z,96.5
2018-12-08T01:16:43.265Z,96.03
2018-12-08T01:17:09.374Z,96.6
2018-12-08T01:17:35.475Z,96.22
2018-12-08T01:18:01.586Z,96.03
2018-12-08T01:18:27.687Z,96.22
2018-12-08T01:18:53.791Z,96.22
2018-12-08T01:19:19.904Z,96.03
2018-12-08T01:19:46.004Z,95.84
2018-12-08T01:20:12.112Z,96.03
2018-12-08T01:20:38.225Z,96.22
2018-12-08T01:21:04.326Z,96.03
2018-12-08T01:21:30.429Z,96.03
2018-12-08T01:21:56.533Z,96.22
2018-12-08T01:22:22.647Z,96.31
2018-12-08T01:22:48.792Z,96.5
2018-12-08T01:23:14.893Z,96.12
2018-12-08T01:23:41.028Z,96.12
2018-12-08T01:24:07.135Z,96.03
2018-12-08T01:24:33.233Z,95.79
2018-12-08T01:24:59.929Z,96.03
2018-12-08T01:25:26.036Z,95.84
2018-12-08T01:25:52.138Z,95.94
2018-12-08T01:26:18.254Z,95.94
2018-12-08T01:26:44.350Z,96.03
2018-12-08T01:27:10.491Z,96.12
2018-12-08T01:27:36.628Z,95.84
2018-12-08T01:28:02.731Z,94.32
2018-12-08T01:28:28.839Z,94.7
2018-12-08T01:28:54.948Z,94.56
2018-12-08T01:29:21.046Z,94.93
2018-12-08T01:29:47.151Z,94.6
2018-12-08T01:30:13.275Z,94.74
2018-12-08T01:30:39.371Z,94.32
2018-12-08T01:31:05.476Z,94.46
2018-12-08T01:31:31.588Z,94.37
2018-12-08T01:31:57.727Z,94.98
2018-12-08T01:32:23.831Z,94.84
2018-12-08T01:32:49.930Z,94.84
2018-12-08T01:33:16.042Z,95.03
2018-12-08T01:33:42.147Z,95.22
2018-12-08T01:34:08.249Z,94.84
2018-12-08T01:34:34.359Z,94.93
2018-12-08T01:35:00.462Z,95.32
2018-12-08T01:35:26.659Z,95.32
2018-12-08T01:35:52.767Z,95.12
2018-12-08T01:36:18.902Z,95.89
2018-12-08T01:36:45.012Z,96.08
2018-12-08T01:37:11.147Z,95.79
2018-12-08T01:37:37.255Z,95.89
2018-12-08T01:38:03.391Z,95.98
2018-12-08T01:38:29.500Z,95.89
2018-12-08T01:38:55.614Z,95.98
2018-12-08T01:39:21.747Z,95.79
2018-12-08T01:39:47.850Z,96.55
2018-12-08T01:40:13.978Z,96.26
2018-12-08T01:40:40.058Z,96.84
2018-12-08T01:41:06.165Z,96.74
2018-12-08T01:41:32.348Z,97.03
2018-12-08T01:41:58.482Z,97.12
2018-12-08T01:42:24.590Z,97.12
2018-12-08T01:42:50.700Z,97.22
2018-12-08T01:43:16.808Z,97.03
2018-12-08T01:43:42.942Z,97.6
2018-12-08T01:44:09.138Z,97.5
2018-12-08T01:44:35.821Z,97.78
2018-12-08T01:45:01.925Z,97.5
2018-12-08T01:45:28.031Z,97.6
2018-12-08T01:45:54.137Z,97.6
2018-12-08T01:46:20.241Z,97.69
2018-12-08T01:46:46.339Z,97.69
2018-12-08T01:47:12.452Z,97.5
2018-12-08T01:47:38.589Z,97.69
2018-12-08T01:48:04.722Z,97.6
2018-12-08T01:48:30.826Z,97.5
2018-12-08T01:48:56.943Z,97.78
2018-12-08T01:49:23.039Z,97.41
2018-12-08T01:49:49.171Z,97.31
2018-12-08T01:50:15.275Z,97.6
2018-12-08T01:50:41.379Z,97.5
2018-12-08T01:51:07.514Z,97.97
2018-12-08T01:51:33.649Z,97.97
2018-12-08T01:51:59.762Z,97.97
2018-12-08T01:52:25.864Z,97.97
2018-12-08T01:52:52.002Z,97.55
2018-12-08T01:53:18.639Z,97.41
2018-12-08T01:53:44.873Z,97.93
2018-12-08T01:54:10.988Z,97.36
2018-12-08T01:54:37.095Z,97.31
2018-12-08T01:55:03.196Z,97.93
2018-12-08T01:55:29.295Z,97.5
2018-12-08T01:55:55.400Z,97.5
2018-12-08T01:56:21.508Z,97.31
2018-12-08T01:56:47.599Z,97.69
2018-12-08T01:57:13.706Z,97.69
2018-12-08T01:57:39.814Z,98.45
2018-12-08T01:58:05.922Z,98.17
2018-12-08T01:58:32.031Z,98.31
2018-12-08T01:58:58.137Z,98.5
2018-12-08T01:59:24.243Z,97.74
2018-12-08T01:59:50.367Z,97.69
2018-12-08T02:00:16.472Z,97.78
2018-12-08T02:00:42.576Z,97.88
2018-12-08T02:01:08.679Z,97.78
2018-12-08T02:01:34.783Z,97.5
2018-12-08T02:02:00.893Z,97.88
2018-12-08T02:02:27.068Z,97.88
2018-12-08T02:02:53.181Z,97.41
2018-12-08T02:03:19.340Z,97.6
2018-12-08T02:03:45.454Z,97.41
2018-12-08T02:04:11.593Z,97.5
2018-12-08T02:04:37.700Z,97.69
2018-12-08T02:05:03.810Z,97.31
2018-12-08T02:05:29.913Z,97.6
2018-12-08T02:05:56.062Z,97.5
2018-12-08T02:06:22.133Z,97.69
2018-12-08T02:06:48.236Z,97.03
2018-12-08T02:07:14.344Z,97.31
2018-12-08T02:07:40.448Z,97.22
2018-12-08T02:08:06.584Z,97.22
2018-12-08T02:08:32.695Z,97.03
2018-12-08T02:08:58.794Z,96.84
2018-12-08T02:09:25.022Z,97.12
2018-12-08T02:09:51.125Z,96.74
2018-12-08T02:10:17.236Z,96.55
2018-12-08T02:10:43.331Z,96.74
2018-12-08T02:11:09.464Z,96.55
2018-12-08T02:11:36.563Z,96.5
2018-12-08T02:12:02.671Z,96.69
2018-12-08T02:12:28.771Z,96.55
2018-12-08T02:12:54.896Z,96.6
2018-12-08T02:13:21.008Z,96.79
2018-12-08T02:13:47.175Z,96.6
2018-12-08T02:14:13.278Z,96.17
2018-12-08T02:14:39.385Z,96.03
2018-12-08T02:15:05.563Z,96.5
2018-12-08T02:15:31.676Z,96.45
2018-12-08T02:15:57.776Z,95.94
2018-12-08T02:16:23.883Z,95.94
2018-12-08T02:16:49.987Z,96.03
2018-12-08T02:17:16.092Z,95.79
2018-12-08T02:17:42.200Z,95.79
2018-12-08T02:18:08.378Z,96.12
2018-12-08T02:18:34.487Z,95.65
2018-12-08T02:19:00.635Z,95.84
2018-12-08T02:19:26.730Z,96.22
2018-12-08T02:19:52.838Z,95.12
2018-12-08T02:20:18.936Z,95.46
2018-12-08T02:20:45.044Z,95.56
2018-12-08T02:21:11.152Z,96.03
2018-12-08T02:21:37.258Z,95.56
2018-12-08T02:22:03.362Z,95.08
2018-12-08T02:22:29.466Z,95.75
2018-12-08T02:22:55.570Z,95.36
2018-12-08T02:23:21.672Z,95.17
2018-12-08T02:23:47.785Z,95.17
2018-12-08T02:24:13.891Z,95.27
2018-12-08T02:24:40.010Z,95.56
2018-12-08T02:25:06.115Z,95.36
2018-12-08T02:25:32.216Z,95.27
2018-12-08T02:25:58.344Z,94.79
2018-12-08T02:26:24.450Z,94.42
2018-12-08T02:26:50.566Z,94.7
2018-12-08T02:27:16.661Z,94.6
2018-12-08T02:27:42.769Z,94.6
2018-12-08T02:28:08.871Z,94.51
2018-12-08T02:28:34.974Z,94.51
2018-12-08T02:29:01.078Z,94.32
2018-12-08T02:29:27.189Z,94.51
2018-12-08T02:29:53.332Z,94.42
2018-12-08T02:30:19.441Z,94.6
2018-12-08T02:30:45.624Z,94.7
2018-12-08T02:31:11.739Z,94.51
2018-12-08T02:31:37.895Z,93.94
2018-12-08T02:32:04.000Z,93.84
2018-12-08T02:32:30.141Z,93.84
2018-12-08T02:32:56.271Z,94.32
2018-12-08T02:33:22.391Z,94.27
2018-12-08T02:33:48.520Z,94.18
2018-12-08T02:34:14.623Z,93.32
2018-12-08T02:34:40.764Z,93.99
2018-12-08T02:35:06.867Z,93.79
2018-12-08T02:35:32.995Z,94.37
2018-12-08T02:35:59.099Z,94.08
2018-12-08T02:36:25.225Z,93.99
2018-12-08T02:36:51.341Z,94.84
2018-12-08T02:37:17.519Z,94.74
2018-12-08T02:37:43.655Z,94.37
2018-12-08T02:38:09.790Z,94.18
2018-12-08T02:38:35.897Z,94.46
2018-12-08T02:39:02.992Z,94.46
2018-12-08T02:39:29.126Z,94.37
2018-12-08T02:39:55.231Z,94.37
2018-12-08T02:40:21.331Z,94.27
2018-12-08T02:40:47.435Z,94.08
2018-12-08T02:41:13.540Z,93.99
2018-12-08T02:41:39.648Z,94.18
2018-12-08T02:42:05.750Z,94.08
2018-12-08T02:42:31.880Z,94.46
2018-12-08T02:42:58.024Z,94.65
2018-12-08T02:43:24.146Z,94.74
2018-12-08T02:43:50.257Z,94.56
2018-12-08T02:44:16.366Z,94.37
2018-12-08T02:44:42.469Z,94.27
2018-12-08T02:45:08.599Z,94.18
2018-12-08T02:45:34.706Z,94.46
2018-12-08T02:46:00.811Z,94.56
2018-12-08T02:46:27.061Z,94.27
2018-12-08T02:46:53.164Z,94.37
2018-12-08T02:47:19.299Z,94.27
2018-12-08T02:47:45.433Z,94.27
2018-12-08T02:48:11.536Z,93.89
2018-12-08T02:48:37.665Z,94.18
2018-12-08T02:49:03.770Z,93.79
2018-12-08T02:49:29.874Z,93.6
2018-12-08T02:49:55.979Z,93.51
2018-12-08T02:50:22.109Z,93.6
2018-12-08T02:50:48.266Z,93.51
2018-12-08T02:51:14.366Z,93.41
2018-12-08T02:51:40.471Z,93.32
2018-12-08T02:52:06.636Z,93.51
2018-12-08T02:52:32.741Z,93.6
2018-12-08T02:52:58.844Z,93.41
2018-12-08T02:53:24.951Z,93.6
2018-12-08T02:53:51.068Z,93.41
2018-12-08T02:54:17.162Z,93.41
2018-12-08T02:54:43.304Z,93.89
2018-12-08T02:55:09.494Z,93.89
2018-12-08T02:55:35.634Z,93.51
2018-12-08T02:56:01.771Z,93.7
2018-12-08T02:56:27.937Z,93.89
2018-12-08T02:56:54.101Z,94.08
2018-12-08T02:57:20.206Z,93.89
2018-12-08T02:57:46.331Z,93.51
2018-12-08T02:58:12.435Z,94.08
2018-12-08T02:58:38.547Z,93.6
2018-12-08T02:59:04.646Z,94.08
2018-12-08T02:59:30.786Z,94.08
2018-12-08T02:59:56.893Z,93.79
2018-12-08T03:00:23.023Z,94.27
2018-12-08T03:00:49.130Z,94.08
2018-12-08T03:01:15.268Z,94.46
2018-12-08T03:01:41.380Z,93.99
2018-12-08T03:02:07.485Z,94.08
2018-12-08T03:02:33.584Z,94.08
2018-12-08T03:02:59.687Z,94.08
2018-12-08T03:03:25.823Z,93.89
2018-12-08T03:03:51.932Z,94.46
2018-12-08T03:04:18.116Z,94.56
2018-12-08T03:04:44.268Z,94.56
2018-12-08T03:05:10.421Z,94.13
2018-12-08T03:05:36.532Z,93.99
2018-12-08T03:06:02.638Z,94.27
2018-12-08T03:06:28.777Z,94.27
2018-12-08T03:06:54.917Z,94.08
2018-12-08T03:07:21.072Z,93.7
2018-12-08T03:07:47.178Z,93.89
2018-12-08T03:08:13.285Z,93.79
2018-12-08T03:08:39.395Z,94.27
2018-12-08T03:09:05.497Z,93.99
2018-12-08T03:09:31.660Z,94.08
2018-12-08T03:09:57.774Z,94.56
2018-12-08T03:10:23.875Z,94.46
2018-12-08T03:10:49.981Z,94.56
2018-12-08T03:11:16.092Z,94.56
2018-12-08T03:11:42.192Z,94.56
2018-12-08T03:12:08.332Z,94.56
2018-12-08T03:12:34.571Z,94.27
2018-12-08T03:13:00.706Z,94.27
2018-12-08T03:13:26.813Z,94.27
2018-12-08T03:13:52.927Z,94.84
2018-12-08T03:14:19.046Z,93.84
2018-12-08T03:14:45.158Z,94.32
2018-12-08T03:15:11.264Z,94.08
2018-12-08T03:15:37.423Z,93.99
2018-12-08T03:16:03.492Z,94.46
2018-12-08T03:16:29.596Z,93.99
2018-12-08T03:16:55.789Z,94.56
2018-12-08T03:17:21.898Z,94.42
2018-12-08T03:17:48.078Z,94.51
2018-12-08T03:18:14.211Z,94.03
2018-12-08T03:18:40.314Z,94.37
2018-12-08T03:19:06.421Z,93.7
2018-12-08T03:19:32.520Z,93.79
2018-12-08T03:19:58.630Z,94.46
2018-12-08T03:20:24.736Z,94.56
2018-12-08T03:20:50.840Z,94.46
2018-12-08T03:21:16.967Z,94.37
2018-12-08T03:21:43.073Z,94.22
2018-12-08T03:22:09.182Z,94.42
2018-12-08T03:22:35.280Z,94.46
2018-12-08T03:23:01.415Z,94.42
2018-12-08T03:23:27.514Z,94.7
2018-12-08T03:23:53.676Z,94.42
2018-12-08T03:24:19.813Z,94.37
2018-12-08T03:24:45.914Z,94.27
2018-12-08T03:25:12.048Z,94.46
2018-12-08T03:25:38.155Z,94.32
2018-12-08T03:26:04.258Z,94.32
2018-12-08T03:26:30.369Z,94.27
2018-12-08T03:26:56.496Z,94.65
2018-12-08T03:27:22.609Z,94.56
2018-12-08T03:27:48.734Z,94.37
2018-12-08T03:28:14.833Z,94.18
2018-12-08T03:28:40.933Z,94.46
2018-12-08T03:29:07.041Z,94.84
2018-12-08T03:29:33.178Z,94.6
2018-12-08T03:29:59.309Z,94.51
2018-12-08T03:30:25.513Z,94.7
2018-12-08T03:30:51.614Z,94.56
2018-12-08T03:31:17.938Z,94.42
2018-12-08T03:31:44.060Z,94.7
2018-12-08T03:32:10.429Z,94.6
2018-12-08T03:32:36.567Z,94.6
2018-12-08T03:33:02.682Z,94.22
2018-12-08T03:33:28.838Z,93.89
2018-12-08T03:33:54.982Z,93.94
2018-12-08T03:34:21.116Z,93.84
2018-12-08T03:34:47.225Z,93.94
2018-12-08T03:35:13.335Z,93.89
2018-12-08T03:35:39.442Z,94.27
2018-12-08T03:36:05.545Z,94.03
2018-12-08T03:36:31.648Z,93.99
2018-12-08T03:36:57.780Z,94.51
2018-12-08T03:37:23.879Z,94.03
2018-12-08T03:37:50.012Z,94.56
2018-12-08T03:38:16.269Z,94.7
2018-12-08T03:38:42.326Z,94.6
2018-12-08T03:39:08.464Z,94.13
2018-12-08T03:39:34.570Z,94.27
2018-12-08T03:40:00.757Z,94.03
2018-12-08T03:40:26.845Z,93.99
2018-12-08T03:40:52.938Z,94.46
2018-12-08T03:41:19.071Z,94.22
2018-12-08T03:41:45.183Z,94.27
2018-12-08T03:42:11.344Z,93.89
2018-12-08T03:42:37.448Z,93.89
2018-12-08T03:43:03.550Z,93.6
2018-12-08T03:43:29.664Z,93.46
2018-12-08T03:43:55.767Z,93.79
2018-12-08T03:44:21.869Z,93.79
2018-12-08T03:44:48.004Z,94.46
2018-12-08T03:45:14.130Z,94.42
2018-12-08T03:45:40.237Z,94.7
2018-12-08T03:46:06.338Z,94.6
2018-12-08T03:46:32.442Z,94.42
2018-12-08T03:46:58.584Z,94.13
2018-12-08T03:47:24.708Z,94.22
2018-12-08T03:47:50.850Z,94.13
2018-12-08T03:48:16.956Z,94.13
2018-12-08T03:48:43.061Z,94.22
2018-12-08T03:49:09.160Z,94.32
2018-12-08T03:49:35.265Z,94.51
2018-12-08T03:50:01.379Z,94.03
2018-12-08T03:50:27.518Z,94.03
2018-12-08T03:50:53.679Z,94.13
2018-12-08T03:51:19.811Z,94.03
2018-12-08T03:51:45.971Z,94.42
2018-12-08T03:52:12.134Z,94.51
2018-12-08T03:52:38.245Z,94.6
2018-12-08T03:53:04.440Z,94.03
2018-12-08T03:53:30.570Z,94.03
2018-12-08T03:53:56.677Z,93.94
2018-12-08T03:54:22.805Z,94.51
2018-12-08T03:54:48.926Z,94.51
2018-12-08T03:55:15.053Z,94.03
2018-12-08T03:55:41.188Z,94.22
2018-12-08T03:56:07.318Z,94.03
2018-12-08T03:56:33.509Z,94.03
2018-12-08T03:56:59.678Z,93.84
2018-12-08T03:57:25.807Z,93.84
2018-12-08T03:57:51.935Z,93.75
2018-12-08T03:58:18.060Z,93.84
2018-12-08T03:58:44.225Z,93.84
2018-12-08T03:59:10.324Z,93.46
2018-12-08T03:59:36.433Z,94.13
2018-12-08T04:00:02.592Z,94.13
2018-12-08T04:00:28.733Z,93.94
2018-12-08T04:00:54.840Z,93.84
2018-12-08T04:01:20.942Z,93.84
2018-12-08T04:01:47.101Z,93.84
2018-12-08T04:02:13.210Z,93.55
2018-12-08T04:02:39.348Z,93.75
2018-12-08T04:03:05.480Z,93.75
2018-12-08T04:03:31.585Z,93.46
2018-12-08T04:03:57.718Z,93.84
2018-12-08T04:04:23.854Z,94.03
2018-12-08T04:04:49.954Z,93.94
2018-12-08T04:05:16.055Z,94.13
2018-12-08T04:05:42.170Z,94.51
2018-12-08T04:06:08.329Z,94.13
2018-12-08T04:06:34.494Z,93.75
2018-12-08T04:07:00.602Z,93.94
2018-12-08T04:07:26.734Z,93.94
2018-12-08T04:07:52.836Z,94.03
2018-12-08T04:08:18.945Z,94.22
2018-12-08T04:08:45.104Z,94.32
2018-12-08T04:09:11.240Z,93.94
2018-12-08T04:09:37.374Z,93.75
2018-12-08T04:10:05.095Z,93.94
2018-12-08T04:10:30.570Z,93.65
2018-12-08T04:10:56.710Z,93.94
2018-12-08T04:11:22.907Z,93.46
2018-12-08T04:11:49.066Z,93.65
2018-12-08T04:12:15.178Z,93.94
2018-12-08T04:12:41.281Z,93.84
2018-12-08T04:13:07.384Z,93.55
2018-12-08T04:13:33.521Z,93.84
2018-12-08T04:13:59.738Z,94.03
2018-12-08T04:14:25.836Z,93.94
2018-12-08T04:14:51.940Z,93.46
2018-12-08T04:15:18.065Z,93.94
2018-12-08T04:15:44.203Z,93.75
2018-12-08T04:16:10.305Z,94.32
2018-12-08T04:16:36.436Z,93.55
2018-12-08T04:17:02.516Z,93.65
2018-12-08T04:17:28.620Z,93.65
2018-12-08T04:17:54.753Z,93.55
2018-12-08T04:18:20.885Z,93.37
2018-12-08T04:18:46.987Z,93.65
2018-12-08T04:19:13.126Z,93.55
2018-12-08T04:19:39.376Z,93.65
2018-12-08T04:20:05.428Z,93.18
2018-12-08T04:20:31.565Z,93.18
2018-12-08T04:20:57.673Z,93.27
2018-12-08T04:21:23.803Z,92.89
2018-12-08T04:21:49.901Z,92.7
2018-12-08T04:22:16.067Z,92.89
2018-12-08T04:22:42.170Z,93.46
2018-12-08T04:23:08.301Z,93.18
2018-12-08T04:23:34.442Z,93.18
2018-12-08T04:24:00.574Z,93.18
2018-12-08T04:24:26.762Z,93.37
2018-12-08T04:24:52.863Z,92.89
2018-12-08T04:25:18.974Z,93.18
2018-12-08T04:25:45.104Z,93.37
2018-12-08T04:26:11.261Z,93.27
2018-12-08T04:26:37.366Z,92.89
2018-12-08T04:27:03.503Z,92.61
2018-12-08T04:27:29.608Z,93.27
2018-12-08T04:27:55.783Z,93.08
2018-12-08T04:28:21.917Z,93.27
2018-12-08T04:28:48.047Z,93.13
2018-12-08T04:29:14.151Z,92.89
2018-12-08T04:29:40.255Z,93.37
2018-12-08T04:30:06.396Z,92.8
2018-12-08T04:30:32.526Z,92.99
2018-12-08T04:30:58.661Z,93.08
2018-12-08T04:31:24.774Z,92.99
2018-12-08T04:31:50.867Z,93.27
2018-12-08T04:32:17.036Z,92.8
2018-12-08T04:32:43.158Z,93.08
2018-12-08T04:33:09.269Z,92.89
2018-12-08T04:33:35.371Z,92.41
2018-12-08T04:34:01.510Z,92.8
2018-12-08T04:34:27.611Z,92.99
2018-12-08T04:34:53.744Z,93.08
2018-12-08T04:35:19.854Z,92.8
2018-12-08T04:35:45.981Z,93.37
2018-12-08T04:36:12.121Z,93.13
2018-12-08T04:36:38.252Z,93.41
2018-12-08T04:37:04.361Z,92.65
2018-12-08T04:37:30.462Z,92.65
2018-12-08T04:37:56.568Z,93.13
2018-12-08T04:38:22.706Z,93.13
2018-12-08T04:38:48.836Z,93.04
2018-12-08T04:39:14.965Z,93.23
2018-12-08T04:39:41.093Z,92.75
2018-12-08T04:40:07.202Z,92.46
2018-12-08T04:40:33.339Z,92.65
2018-12-08T04:40:59.436Z,92.94
2018-12-08T04:41:25.546Z,92.56
2018-12-08T04:41:51.647Z,92.36
2018-12-08T04:42:17.756Z,93.04
2018-12-08T04:42:43.867Z,92.65
2018-12-08T04:43:09.966Z,92.56
2018-12-08T04:43:36.108Z,92.56
2018-12-08T04:44:02.223Z,92.56
2018-12-08T04:44:28.327Z,93.04
2018-12-08T04:44:54.462Z,92.46
2018-12-08T04:45:20.565Z,92.65
2018-12-08T04:45:46.675Z,92.65
2018-12-08T04:46:12.809Z,92.84
2018-12-08T04:46:38.955Z,92.36
2018-12-08T04:47:05.056Z,92.94
2018-12-08T04:47:31.164Z,93.13
2018-12-08T04:47:57.268Z,93.04
2018-12-08T04:48:23.424Z,92.36
2018-12-08T04:48:49.530Z,92.46
2018-12-08T04:49:15.684Z,92.84
2018-12-08T04:49:41.801Z,93.04
2018-12-08T04:50:07.927Z,92.75
2018-12-08T04:50:34.082Z,92.46
2018-12-08T04:51:00.185Z,92.36
2018-12-08T04:51:26.286Z,92.94
2018-12-08T04:51:52.395Z,92.65
2018-12-08T04:52:18.532Z,92.46
2018-12-08T04:52:44.662Z,92.75
2018-12-08T04:53:10.768Z,93.41
2018-12-08T04:53:36.930Z,92.94
2018-12-08T04:54:03.059Z,93.51
2018-12-08T04:54:29.169Z,93.41
2018-12-08T04:54:55.300Z,93.7
2018-12-08T04:55:21.413Z,94.18
2018-12-08T04:55:47.553Z,94.65
2018-12-08T04:56:13.684Z,94.46
2018-12-08T04:56:39.789Z,95.03
2018-12-08T04:57:05.903Z,94.79
2018-12-08T04:57:32.007Z,95.22
2018-12-08T04:57:58.109Z,95.41
2018-12-08T04:58:24.216Z,95.7
2018-12-08T04:58:50.322Z,95.41
2018-12-08T04:59:16.460Z,96.08
2018-12-08T04:59:42.633Z,95.98
2018-12-08T05:00:08.759Z,95.6
2018-12-08T05:00:34.926Z,95.51
2018-12-08T05:01:01.029Z,95.51
2018-12-08T05:01:27.161Z,95.6
2018-12-08T05:01:53.305Z,95.65
2018-12-08T05:02:19.403Z,96.03
2018-12-08T05:02:45.549Z,95.98
2018-12-08T05:03:11.651Z,95.7
2018-12-08T05:03:37.756Z,96.41
2018-12-08T05:04:03.855Z,96.6
2018-12-08T05:04:29.966Z,96.69
2018-12-08T05:04:56.068Z,96.31
2018-12-08T05:05:22.175Z,96.6
2018-12-08T05:05:48.279Z,96.79
2018-12-08T05:06:14.381Z,96.89
2018-12-08T05:06:40.489Z,96.89
2018-12-08T05:07:06.586Z,96.84
2018-12-08T05:07:32.693Z,96.6
2018-12-08T05:07:58.792Z,96.69
2018-12-08T05:08:24.899Z,96.94
2018-12-08T05:08:51.004Z,96.98
2018-12-08T05:09:17.150Z,97.03
2018-12-08T05:09:43.252Z,96.79
2018-12-08T05:10:09.359Z,96.74
2018-12-08T05:10:35.485Z,96.6
2018-12-08T05:11:01.594Z,96.89
2018-12-08T05:11:27.695Z,96.98
2018-12-08T05:11:53.827Z,96.98
2018-12-08T05:12:19.932Z,96.79
2018-12-08T05:12:46.038Z,96.79
2018-12-08T05:13:12.143Z,96.84
2018-12-08T05:13:38.255Z,96.69
2018-12-08T05:14:04.364Z,96.79
2018-12-08T05:14:30.484Z,96.98
2018-12-08T05:14:56.621Z,97.03
2018-12-08T05:15:22.724Z,96.69
2018-12-08T05:15:48.836Z,96.5
2018-12-08T05:16:14.943Z,96.41
2018-12-08T05:16:41.057Z,96.46
2018-12-08T05:17:07.191Z,96.69
2018-12-08T05:17:33.298Z,96.5
2018-12-08T05:17:59.428Z,96.22
2018-12-08T05:18:25.531Z,96.22
2018-12-08T05:18:51.639Z,96.22
2018-12-08T05:19:17.901Z,96.79
2018-12-08T05:19:43.970Z,96.6
2018-12-08T05:20:10.121Z,96.12
2018-12-08T05:20:36.244Z,96.65
2018-12-08T05:21:02.355Z,96.31
2018-12-08T05:21:28.476Z,96.79
2018-12-08T05:21:54.580Z,96.69
2018-12-08T05:22:20.707Z,96.03
2018-12-08T05:22:46.816Z,96.84
2018-12-08T05:23:12.953Z,96.69
2018-12-08T05:23:39.061Z,96.79
2018-12-08T05:24:05.258Z,96.69
2018-12-08T05:24:31.402Z,96.69
2018-12-08T05:24:57.536Z,96.79
2018-12-08T05:25:23.631Z,96.65
2018-12-08T05:25:49.762Z,96.79
2018-12-08T05:26:15.862Z,96.74
2018-12-08T05:26:41.973Z,96.74
2018-12-08T05:27:08.104Z,96.69
2018-12-08T05:27:34.234Z,96.69
2018-12-08T05:28:00.365Z,97.08
2018-12-08T05:28:26.466Z,96.94
2018-12-08T05:28:52.606Z,97.31
2018-12-08T05:29:18.724Z,97.22
2018-12-08T05:29:44.828Z,97.08
2018-12-08T05:30:10.952Z,97.41
2018-12-08T05:30:37.054Z,97.31
2018-12-08T05:31:03.195Z,97.79
2018-12-08T05:31:29.324Z,97.41
2018-12-08T05:31:55.432Z,97.17
2018-12-08T05:32:21.535Z,97.74
2018-12-08T05:32:47.642Z,97.45
2018-12-08T05:33:13.770Z,97.83
2018-12-08T05:33:39.897Z,98.41
2018-12-08T05:34:06.005Z,98.55
2018-12-08T05:34:32.138Z,98.79
2018-12-08T05:34:58.274Z,98.69
2018-12-08T05:35:24.437Z,98.83
2018-12-08T05:35:50.579Z,99.02
2018-12-08T05:36:16.698Z,99.31
2018-12-08T05:36:42.806Z,99.6
2018-12-08T05:37:08.932Z,99.64
2018-12-08T05:37:35.041Z,99.74